sensor_id;sensor_type;location;lat;lon;timestamp;pressure;altitude;pressure_sealevel;temperature;humidity
22964;BME280;11648;49.306;6.934;2022-07-15T00:01:51;98825.06;;;23.95;nan
22964;BME280;11648;49.306;6.934;2022-07-15T00:04:18;98830.44;;;23.95;nan
22964;BME280;11648;49.306;6.934;2022-07-15T00:06:45;98836.16;;;23.89;nan
22964;BME280;11648;49.306;6.934;2022-07-15T00:09:12;98826.44;;;23.86;nan
22964;BME280;11648;49.306;6.934;2022-07-15T00:11:39;98827.78;;;23.79;nan
22964;BME280;11648;49.306;6.934;2022-07-15T00:14:05;98828.56;;;23.81;nan
22964;BME280;11648;49.306;6.934;2022-07-15T00:16:32;98832.97;;;23.82;nan
22964;BME280;11648;49.306;6.934;2022-07-15T00:18:59;98829.41;;;23.82;nan
22964;BME280;11648;49.306;6.934;2022-07-15T00:21:26;98834.69;;;23.83;nan
22964;BME280;11648;49.306;6.934;2022-07-15T00:23:52;98842.09;;;23.80;nan
22964;BME280;11648;49.306;6.934;2022-07-15T00:26:19;98835.16;;;23.76;nan
22964;BME280;11648;49.306;6.934;2022-07-15T00:28:45;98831.78;;;23.72;nan
22964;BME280;11648;49.306;6.934;2022-07-15T00:31:12;98823.72;;;23.72;nan
22964;BME280;11648;49.306;6.934;2022-07-15T00:33:40;98831.09;;;23.69;nan
22964;BME280;11648;49.306;6.934;2022-07-15T00:36:06;98826.50;;;23.71;nan
22964;BME280;11648;49.306;6.934;2022-07-15T00:38:34;98829.34;;;23.68;nan
22964;BME280;11648;49.306;6.934;2022-07-15T00:41:01;98822.84;;;23.72;nan
22964;BME280;11648;49.306;6.934;2022-07-15T00:43:28;98825.63;;;23.70;nan
22964;BME280;11648;49.306;6.934;2022-07-15T00:45:55;98823.97;;;23.68;nan
22964;BME280;11648;49.306;6.934;2022-07-15T00:48:21;98822.00;;;23.55;nan
22964;BME280;11648;49.306;6.934;2022-07-15T00:50:48;98816.81;;;23.52;nan
22964;BME280;11648;49.306;6.934;2022-07-15T00:53:17;98833.28;;;23.46;nan
22964;BME280;11648;49.306;6.934;2022-07-15T00:55:45;98823.28;;;23.33;nan
22964;BME280;11648;49.306;6.934;2022-07-15T00:58:17;98823.72;;;23.25;nan
22964;BME280;11648;49.306;6.934;2022-07-15T01:00:47;98825.81;;;23.20;nan
22964;BME280;11648;49.306;6.934;2022-07-15T01:03:16;98827.69;;;23.18;nan
22964;BME280;11648;49.306;6.934;2022-07-15T01:05:45;98825.13;;;23.17;nan
22964;BME280;11648;49.306;6.934;2022-07-15T01:08:14;98817.91;;;23.17;nan
22964;BME280;11648;49.306;6.934;2022-07-15T01:10:41;98813.50;;;23.16;nan
22964;BME280;11648;49.306;6.934;2022-07-15T01:13:08;98813.22;;;23.21;nan
22964;BME280;11648;49.306;6.934;2022-07-15T01:15:35;98818.75;;;23.18;nan
22964;BME280;11648;49.306;6.934;2022-07-15T01:18:02;98819.19;;;23.10;nan
22964;BME280;11648;49.306;6.934;2022-07-15T01:20:33;98817.47;;;23.09;nan
22964;BME280;11648;49.306;6.934;2022-07-15T01:23:00;98810.28;;;23.09;nan
22964;BME280;11648;49.306;6.934;2022-07-15T01:25:42;98819.81;;;23.15;nan
22964;BME280;11648;49.306;6.934;2022-07-15T01:28:12;98827.50;;;23.21;nan
22964;BME280;11648;49.306;6.934;2022-07-15T01:30:39;98822.31;;;23.18;nan
22964;BME280;11648;49.306;6.934;2022-07-15T01:33:09;98824.25;;;23.16;nan
22964;BME280;11648;49.306;6.934;2022-07-15T01:35:36;98816.25;;;23.14;nan
22964;BME280;11648;49.306;6.934;2022-07-15T01:38:03;98821.88;;;23.10;nan
22964;BME280;11648;49.306;6.934;2022-07-15T01:40:30;98818.25;;;23.11;nan
22964;BME280;11648;49.306;6.934;2022-07-15T01:42:57;98818.41;;;23.08;nan
22964;BME280;11648;49.306;6.934;2022-07-15T01:45:24;98818.34;;;23.09;nan
22964;BME280;11648;49.306;6.934;2022-07-15T01:47:52;98823.63;;;23.11;nan
22964;BME280;11648;49.306;6.934;2022-07-15T01:50:37;98823.28;;;23.01;nan
22964;BME280;11648;49.306;6.934;2022-07-15T01:53:13;98833.38;;;22.96;nan
22964;BME280;11648;49.306;6.934;2022-07-15T01:55:40;98831.22;;;22.87;nan
22964;BME280;11648;49.306;6.934;2022-07-15T01:58:07;98834.22;;;22.81;nan
22964;BME280;11648;49.306;6.934;2022-07-15T02:00:35;98843.81;;;22.70;nan
22964;BME280;11648;49.306;6.934;2022-07-15T02:03:02;98840.66;;;22.61;nan
22964;BME280;11648;49.306;6.934;2022-07-15T02:05:29;98844.84;;;22.50;nan
22964;BME280;11648;49.306;6.934;2022-07-15T02:07:56;98833.25;;;22.49;nan
22964;BME280;11648;49.306;6.934;2022-07-15T02:10:23;98833.03;;;22.37;nan
22964;BME280;11648;49.306;6.934;2022-07-15T02:12:52;98832.09;;;22.38;nan
22964;BME280;11648;49.306;6.934;2022-07-15T02:15:24;98838.63;;;22.32;nan
22964;BME280;11648;49.306;6.934;2022-07-15T02:17:55;98838.97;;;22.26;nan
22964;BME280;11648;49.306;6.934;2022-07-15T02:20:26;98839.34;;;22.19;nan
22964;BME280;11648;49.306;6.934;2022-07-15T02:22:54;98840.41;;;22.16;nan
22964;BME280;11648;49.306;6.934;2022-07-15T02:25:26;98841.56;;;22.10;nan
22964;BME280;11648;49.306;6.934;2022-07-15T02:27:58;98841.66;;;22.09;nan
22964;BME280;11648;49.306;6.934;2022-07-15T02:30:31;98841.16;;;22.01;nan
22964;BME280;11648;49.306;6.934;2022-07-15T02:32:58;98844.66;;;21.84;nan
22964;BME280;11648;49.306;6.934;2022-07-15T02:35:25;98844.41;;;21.72;nan
22964;BME280;11648;49.306;6.934;2022-07-15T02:37:52;98844.84;;;21.62;nan
22964;BME280;11648;49.306;6.934;2022-07-15T02:40:19;98845.16;;;21.56;nan
22964;BME280;11648;49.306;6.934;2022-07-15T02:42:53;98849.50;;;21.59;nan
22964;BME280;11648;49.306;6.934;2022-07-15T02:45:22;98844.94;;;21.61;nan
22964;BME280;11648;49.306;6.934;2022-07-15T02:47:50;98850.53;;;21.56;nan
22964;BME280;11648;49.306;6.934;2022-07-15T02:50:23;98853.03;;;21.59;nan
22964;BME280;11648;49.306;6.934;2022-07-15T02:52:50;98862.09;;;21.57;nan
22964;BME280;11648;49.306;6.934;2022-07-15T02:55:17;98853.03;;;21.59;nan
22964;BME280;11648;49.306;6.934;2022-07-15T02:57:44;98860.31;;;21.57;nan
22964;BME280;11648;49.306;6.934;2022-07-15T03:00:14;98861.22;;;21.56;nan
22964;BME280;11648;49.306;6.934;2022-07-15T03:02:42;98864.84;;;21.55;nan
22964;BME280;11648;49.306;6.934;2022-07-15T03:05:10;98862.69;;;21.45;nan
22964;BME280;11648;49.306;6.934;2022-07-15T03:07:39;98863.00;;;21.39;nan
22964;BME280;11648;49.306;6.934;2022-07-15T03:10:08;98863.88;;;21.39;nan
22964;BME280;11648;49.306;6.934;2022-07-15T03:12:36;98856.34;;;21.29;nan
22964;BME280;11648;49.306;6.934;2022-07-15T03:15:04;98862.59;;;21.29;nan
22964;BME280;11648;49.306;6.934;2022-07-15T03:17:34;98870.25;;;21.18;nan
22964;BME280;11648;49.306;6.934;2022-07-15T03:20:01;98871.81;;;21.03;nan
22964;BME280;11648;49.306;6.934;2022-07-15T03:22:31;98872.81;;;21.01;nan
22964;BME280;11648;49.306;6.934;2022-07-15T03:24:58;98870.78;;;21.06;nan
22964;BME280;11648;49.306;6.934;2022-07-15T03:27:24;98869.13;;;21.03;nan
22964;BME280;11648;49.306;6.934;2022-07-15T03:29:51;98875.69;;;20.96;nan
22964;BME280;11648;49.306;6.934;2022-07-15T03:32:19;98872.22;;;20.94;nan
22964;BME280;11648;49.306;6.934;2022-07-15T03:34:48;98869.53;;;20.94;nan
22964;BME280;11648;49.306;6.934;2022-07-15T03:37:17;98879.25;;;20.97;nan
22964;BME280;11648;49.306;6.934;2022-07-15T03:39:46;98877.22;;;21.02;nan
22964;BME280;11648;49.306;6.934;2022-07-15T03:42:15;98873.38;;;20.89;nan
22964;BME280;11648;49.306;6.934;2022-07-15T03:44:43;98873.19;;;20.73;nan
22964;BME280;11648;49.306;6.934;2022-07-15T03:47:10;98871.88;;;20.63;nan
22964;BME280;11648;49.306;6.934;2022-07-15T03:49:37;98874.63;;;20.61;nan
22964;BME280;11648;49.306;6.934;2022-07-15T03:52:04;98874.34;;;20.67;nan
22964;BME280;11648;49.306;6.934;2022-07-15T03:54:33;98880.28;;;20.74;nan
22964;BME280;11648;49.306;6.934;2022-07-15T03:57:01;98873.91;;;20.77;nan
22964;BME280;11648;49.306;6.934;2022-07-15T03:59:28;98873.44;;;20.68;nan
22964;BME280;11648;49.306;6.934;2022-07-15T04:01:55;98875.47;;;20.62;nan
22964;BME280;11648;49.306;6.934;2022-07-15T04:04:22;98874.88;;;20.55;nan
22964;BME280;11648;49.306;6.934;2022-07-15T04:06:50;98880.50;;;20.69;nan
22964;BME280;11648;49.306;6.934;2022-07-15T04:09:17;98882.69;;;20.80;nan
22964;BME280;11648;49.306;6.934;2022-07-15T04:11:44;98880.63;;;20.87;nan
22964;BME280;11648;49.306;6.934;2022-07-15T04:14:12;98885.53;;;20.96;nan
22964;BME280;11648;49.306;6.934;2022-07-15T04:16:40;98877.31;;;21.00;nan
22964;BME280;11648;49.306;6.934;2022-07-15T04:19:30;98892.19;;;21.06;nan
22964;BME280;11648;49.306;6.934;2022-07-15T04:22:00;98883.06;;;21.11;nan
22964;BME280;11648;49.306;6.934;2022-07-15T04:24:30;98887.41;;;21.14;nan
22964;BME280;11648;49.306;6.934;2022-07-15T04:26:57;98880.25;;;21.14;nan
22964;BME280;11648;49.306;6.934;2022-07-15T04:29:24;98887.03;;;21.22;nan
22964;BME280;11648;49.306;6.934;2022-07-15T04:31:50;98884.94;;;21.28;nan
22964;BME280;11648;49.306;6.934;2022-07-15T04:34:25;98885.50;;;21.35;nan
22964;BME280;11648;49.306;6.934;2022-07-15T04:36:52;98880.81;;;21.40;nan
22964;BME280;11648;49.306;6.934;2022-07-15T04:39:19;98876.81;;;21.48;nan
22964;BME280;11648;49.306;6.934;2022-07-15T04:41:45;98877.31;;;21.56;nan
22964;BME280;11648;49.306;6.934;2022-07-15T04:44:13;98881.59;;;21.60;nan
22964;BME280;11648;49.306;6.934;2022-07-15T04:46:40;98882.25;;;21.65;nan
22964;BME280;11648;49.306;6.934;2022-07-15T04:49:25;98885.63;;;21.69;nan
22964;BME280;11648;49.306;6.934;2022-07-15T04:52:12;98886.91;;;21.79;nan
22964;BME280;11648;49.306;6.934;2022-07-15T04:54:42;98887.47;;;21.86;nan
22964;BME280;11648;49.306;6.934;2022-07-15T04:57:09;98894.44;;;21.90;nan
22964;BME280;11648;49.306;6.934;2022-07-15T04:59:38;98896.38;;;22.05;nan
22964;BME280;11648;49.306;6.934;2022-07-15T05:02:09;98894.81;;;22.18;nan
22964;BME280;11648;49.306;6.934;2022-07-15T05:04:40;98892.94;;;22.37;nan
22964;BME280;11648;49.306;6.934;2022-07-15T05:07:09;98899.72;;;22.44;nan
22964;BME280;11648;49.306;6.934;2022-07-15T05:09:38;98896.06;;;22.45;nan
22964;BME280;11648;49.306;6.934;2022-07-15T05:12:05;98902.41;;;22.44;nan
22964;BME280;11648;49.306;6.934;2022-07-15T05:14:42;98906.00;;;22.43;nan
22964;BME280;11648;49.306;6.934;2022-07-15T05:17:10;98907.59;;;22.47;nan
22964;BME280;11648;49.306;6.934;2022-07-15T05:19:37;98891.56;;;22.46;nan
22964;BME280;11648;49.306;6.934;2022-07-15T05:22:04;98894.78;;;22.52;nan
22964;BME280;11648;49.306;6.934;2022-07-15T05:24:31;98902.94;;;22.51;nan
22964;BME280;11648;49.306;6.934;2022-07-15T05:27:02;98897.34;;;22.55;nan
22964;BME280;11648;49.306;6.934;2022-07-15T05:29:31;98909.19;;;22.51;nan
22964;BME280;11648;49.306;6.934;2022-07-15T05:31:58;98894.97;;;22.67;nan
22964;BME280;11648;49.306;6.934;2022-07-15T05:34:26;98907.44;;;22.68;nan
22964;BME280;11648;49.306;6.934;2022-07-15T05:36:53;98906.41;;;22.87;nan
22964;BME280;11648;49.306;6.934;2022-07-15T05:39:22;98911.19;;;22.98;nan
22964;BME280;11648;49.306;6.934;2022-07-15T05:41:51;98912.81;;;23.33;nan
22964;BME280;11648;49.306;6.934;2022-07-15T05:44:18;98903.59;;;23.54;nan
22964;BME280;11648;49.306;6.934;2022-07-15T05:46:47;98903.94;;;23.95;nan
22964;BME280;11648;49.306;6.934;2022-07-15T05:49:14;98903.31;;;24.36;nan
22964;BME280;11648;49.306;6.934;2022-07-15T05:51:41;98899.91;;;24.48;nan
22964;BME280;11648;49.306;6.934;2022-07-15T05:54:08;98905.91;;;24.67;nan
22964;BME280;11648;49.306;6.934;2022-07-15T05:56:35;98908.56;;;24.97;nan
22964;BME280;11648;49.306;6.934;2022-07-15T05:59:02;98903.78;;;25.16;nan
22964;BME280;11648;49.306;6.934;2022-07-15T06:01:33;98907.81;;;25.23;nan
22964;BME280;11648;49.306;6.934;2022-07-15T06:04:00;98899.41;;;25.42;nan
22964;BME280;11648;49.306;6.934;2022-07-15T06:06:27;98910.69;;;25.63;nan
22964;BME280;11648;49.306;6.934;2022-07-15T06:08:54;98908.53;;;25.82;nan
22964;BME280;11648;49.306;6.934;2022-07-15T06:11:22;98903.91;;;26.11;nan
22964;BME280;11648;49.306;6.934;2022-07-15T06:13:50;98901.59;;;26.19;nan
22964;BME280;11648;49.306;6.934;2022-07-15T06:16:16;98904.44;;;26.42;nan
22964;BME280;11648;49.306;6.934;2022-07-15T06:18:43;98905.44;;;26.54;nan
22964;BME280;11648;49.306;6.934;2022-07-15T06:21:10;98901.91;;;26.79;nan
22964;BME280;11648;49.306;6.934;2022-07-15T06:23:38;98905.84;;;27.00;nan
22964;BME280;11648;49.306;6.934;2022-07-15T06:26:04;98898.59;;;27.26;nan
22964;BME280;11648;49.306;6.934;2022-07-15T06:28:31;98895.50;;;27.56;nan
22964;BME280;11648;49.306;6.934;2022-07-15T06:30:58;98891.91;;;27.68;nan
22964;BME280;11648;49.306;6.934;2022-07-15T06:33:25;98886.91;;;27.25;nan
22964;BME280;11648;49.306;6.934;2022-07-15T06:35:53;98898.88;;;27.34;nan
22964;BME280;11648;49.306;6.934;2022-07-15T06:38:21;98890.44;;;27.38;nan
22964;BME280;11648;49.306;6.934;2022-07-15T06:40:48;98877.19;;;27.72;nan
22964;BME280;11648;49.306;6.934;2022-07-15T06:43:14;98875.13;;;27.99;nan
22964;BME280;11648;49.306;6.934;2022-07-15T06:45:56;98871.94;;;27.81;nan
22964;BME280;11648;49.306;6.934;2022-07-15T06:48:22;98881.84;;;27.70;nan
22964;BME280;11648;49.306;6.934;2022-07-15T06:50:51;98881.31;;;27.65;nan
22964;BME280;11648;49.306;6.934;2022-07-15T06:53:17;98869.81;;;27.74;nan
22964;BME280;11648;49.306;6.934;2022-07-15T06:55:45;98871.25;;;27.67;nan
22964;BME280;11648;49.306;6.934;2022-07-15T06:58:11;98876.09;;;27.74;nan
22964;BME280;11648;49.306;6.934;2022-07-15T07:00:38;98873.44;;;27.85;nan
22964;BME280;11648;49.306;6.934;2022-07-15T07:03:05;98872.75;;;28.07;nan
22964;BME280;11648;49.306;6.934;2022-07-15T07:05:32;98875.25;;;27.97;nan
22964;BME280;11648;49.306;6.934;2022-07-15T07:07:58;98881.16;;;28.03;nan
22964;BME280;11648;49.306;6.934;2022-07-15T07:10:25;98876.72;;;28.14;nan
22964;BME280;11648;49.306;6.934;2022-07-15T07:12:53;98879.56;;;28.00;nan
22964;BME280;11648;49.306;6.934;2022-07-15T07:15:19;98880.19;;;28.27;nan
22964;BME280;11648;49.306;6.934;2022-07-15T07:17:47;98885.63;;;28.27;nan
22964;BME280;11648;49.306;6.934;2022-07-15T07:20:14;98881.63;;;28.79;nan
22964;BME280;11648;49.306;6.934;2022-07-15T07:22:41;98876.97;;;28.57;nan
22964;BME280;11648;49.306;6.934;2022-07-15T07:25:07;98877.13;;;28.67;nan
22964;BME280;11648;49.306;6.934;2022-07-15T07:27:34;98893.97;;;28.83;nan
22964;BME280;11648;49.306;6.934;2022-07-15T07:30:01;98896.72;;;29.05;nan
22964;BME280;11648;49.306;6.934;2022-07-15T07:32:29;98889.91;;;28.77;nan
22964;BME280;11648;49.306;6.934;2022-07-15T07:35:00;98894.00;;;29.16;nan
22964;BME280;11648;49.306;6.934;2022-07-15T07:37:26;98884.38;;;29.68;nan
22964;BME280;11648;49.306;6.934;2022-07-15T07:39:53;98882.72;;;30.10;nan
22964;BME280;11648;49.306;6.934;2022-07-15T07:42:20;98883.47;;;30.32;nan
22964;BME280;11648;49.306;6.934;2022-07-15T07:44:46;98884.97;;;30.25;nan
22964;BME280;11648;49.306;6.934;2022-07-15T07:47:13;98885.47;;;29.76;nan
22964;BME280;11648;49.306;6.934;2022-07-15T07:49:40;98893.63;;;29.65;nan
22964;BME280;11648;49.306;6.934;2022-07-15T07:52:07;98886.13;;;29.47;nan
22964;BME280;11648;49.306;6.934;2022-07-15T07:54:33;98896.72;;;29.16;nan
22964;BME280;11648;49.306;6.934;2022-07-15T07:57:00;98899.03;;;28.87;nan
22964;BME280;11648;49.306;6.934;2022-07-15T07:59:27;98896.22;;;29.22;nan
22964;BME280;11648;49.306;6.934;2022-07-15T08:01:54;98895.97;;;29.25;nan
22964;BME280;11648;49.306;6.934;2022-07-15T08:04:21;98882.41;;;29.14;nan
22964;BME280;11648;49.306;6.934;2022-07-15T08:06:48;98890.41;;;29.05;nan
22964;BME280;11648;49.306;6.934;2022-07-15T08:09:14;98884.50;;;29.66;nan
22964;BME280;11648;49.306;6.934;2022-07-15T08:11:42;98887.25;;;30.20;nan
22964;BME280;11648;49.306;6.934;2022-07-15T08:14:11;98884.38;;;30.54;nan
22964;BME280;11648;49.306;6.934;2022-07-15T08:16:38;98876.59;;;30.60;nan
22964;BME280;11648;49.306;6.934;2022-07-15T08:19:08;98879.47;;;30.48;nan
22964;BME280;11648;49.306;6.934;2022-07-15T08:21:35;98892.09;;;30.90;nan
22964;BME280;11648;49.306;6.934;2022-07-15T08:24:02;98876.09;;;31.17;nan
22964;BME280;11648;49.306;6.934;2022-07-15T08:26:29;98871.03;;;31.64;nan
22964;BME280;11648;49.306;6.934;2022-07-15T08:28:56;98867.78;;;31.89;nan
22964;BME280;11648;49.306;6.934;2022-07-15T08:31:33;98874.03;;;31.61;nan
22964;BME280;11648;49.306;6.934;2022-07-15T08:34:00;98872.19;;;31.41;nan
22964;BME280;11648;49.306;6.934;2022-07-15T08:36:27;98882.06;;;31.11;nan
22964;BME280;11648;49.306;6.934;2022-07-15T08:38:54;98877.59;;;31.31;nan
22964;BME280;11648;49.306;6.934;2022-07-15T08:41:21;98873.66;;;31.94;nan
22964;BME280;11648;49.306;6.934;2022-07-15T08:43:48;98868.56;;;32.49;nan
22964;BME280;11648;49.306;6.934;2022-07-15T08:46:15;98866.06;;;33.03;nan
22964;BME280;11648;49.306;6.934;2022-07-15T08:48:49;98869.09;;;33.74;nan
22964;BME280;11648;49.306;6.934;2022-07-15T08:51:20;98863.69;;;34.09;nan
22964;BME280;11648;49.306;6.934;2022-07-15T08:53:48;98871.94;;;34.27;nan
22964;BME280;11648;49.306;6.934;2022-07-15T08:56:17;98873.94;;;34.78;nan
22964;BME280;11648;49.306;6.934;2022-07-15T08:58:46;98876.31;;;35.16;nan
22964;BME280;11648;49.306;6.934;2022-07-15T09:01:24;98872.13;;;34.87;nan
22964;BME280;11648;49.306;6.934;2022-07-15T09:03:51;98871.81;;;34.01;nan
22964;BME280;11648;49.306;6.934;2022-07-15T09:06:40;98876.00;;;32.85;nan
22964;BME280;11648;49.306;6.934;2022-07-15T09:12:04;98886.22;;;31.76;nan
22964;BME280;11648;49.306;6.934;2022-07-15T09:14:40;98885.06;;;32.76;nan
22964;BME280;11648;49.306;6.934;2022-07-15T09:22:28;98864.34;;;34.21;nan
22964;BME280;11648;49.306;6.934;2022-07-15T09:25:08;98869.09;;;33.47;nan
22964;BME280;11648;49.306;6.934;2022-07-15T09:27:40;98874.13;;;32.86;nan
22964;BME280;11648;49.306;6.934;2022-07-15T09:30:20;98867.31;;;33.09;nan
22964;BME280;11648;49.306;6.934;2022-07-15T09:33:21;98874.00;;;32.77;nan
22964;BME280;11648;49.306;6.934;2022-07-15T09:36:16;98859.75;;;34.21;nan
22964;BME280;11648;49.306;6.934;2022-07-15T09:39:04;98850.72;;;35.67;nan
22964;BME280;11648;49.306;6.934;2022-07-15T09:41:40;98850.13;;;36.64;nan
22964;BME280;11648;49.306;6.934;2022-07-15T09:46:46;98842.25;;;38.18;nan
22964;BME280;11648;49.306;6.934;2022-07-15T09:54:22;98845.44;;;38.75;nan
22964;BME280;11648;49.306;6.934;2022-07-15T09:56:50;98843.16;;;38.33;nan
22964;BME280;11648;49.306;6.934;2022-07-15T09:59:18;98842.56;;;38.69;nan
22964;BME280;11648;49.306;6.934;2022-07-15T10:01:45;98842.31;;;39.74;nan
22964;BME280;11648;49.306;6.934;2022-07-15T10:04:15;98837.66;;;41.17;nan
22964;BME280;11648;49.306;6.934;2022-07-15T10:06:43;98846.72;;;40.83;nan
22964;BME280;11648;49.306;6.934;2022-07-15T10:09:22;98848.97;;;39.65;nan
22964;BME280;11648;49.306;6.934;2022-07-15T10:11:51;98841.50;;;38.01;nan
22964;BME280;11648;49.306;6.934;2022-07-15T10:14:42;98839.69;;;38.62;nan
22964;BME280;11648;49.306;6.934;2022-07-15T10:23:01;98846.47;;;36.88;nan
22964;BME280;11648;49.306;6.934;2022-07-15T10:28:37;98841.91;;;34.53;nan
22964;BME280;11648;49.306;6.934;2022-07-15T10:31:27;98841.78;;;34.98;nan
22964;BME280;11648;49.306;6.934;2022-07-15T10:39:17;98826.16;;;41.41;nan
22964;BME280;11648;49.306;6.934;2022-07-15T10:41:54;98815.03;;;43.41;nan
22964;BME280;11648;49.306;6.934;2022-07-15T10:44:28;98823.91;;;44.52;nan
22964;BME280;11648;49.306;6.934;2022-07-15T10:49:41;98803.75;;;46.22;nan
22964;BME280;11648;49.306;6.934;2022-07-15T10:52:14;98797.94;;;46.64;nan
22964;BME280;11648;49.306;6.934;2022-07-15T10:55:03;98799.88;;;45.75;nan
22964;BME280;11648;49.306;6.934;2022-07-15T11:05:35;98798.25;;;46.98;nan
22964;BME280;11648;49.306;6.934;2022-07-15T11:13:43;98799.44;;;46.37;nan
22964;BME280;11648;49.306;6.934;2022-07-15T11:16:20;98800.88;;;44.45;nan
22964;BME280;11648;49.306;6.934;2022-07-15T11:18:51;98803.38;;;42.73;nan
22964;BME280;11648;49.306;6.934;2022-07-15T11:21:18;98795.03;;;42.47;nan
22964;BME280;11648;49.306;6.934;2022-07-15T11:23:49;98793.63;;;41.91;nan
22964;BME280;11648;49.306;6.934;2022-07-15T11:26:17;98803.13;;;42.55;nan
22964;BME280;11648;49.306;6.934;2022-07-15T11:28:55;98803.88;;;41.49;nan
22964;BME280;11648;49.306;6.934;2022-07-15T11:31:24;98810.25;;;41.22;nan
22964;BME280;11648;49.306;6.934;2022-07-15T11:33:55;98809.03;;;39.90;nan
22964;BME280;11648;49.306;6.934;2022-07-15T11:36:22;98809.25;;;38.41;nan
22964;BME280;11648;49.306;6.934;2022-07-15T11:38:50;98816.16;;;38.60;nan
22964;BME280;11648;49.306;6.934;2022-07-15T11:41:17;98809.59;;;39.13;nan
22964;BME280;11648;49.306;6.934;2022-07-15T11:44:11;98804.00;;;41.07;nan
22964;BME280;11648;49.306;6.934;2022-07-15T11:46:57;98792.69;;;42.57;nan
22964;BME280;11648;49.306;6.934;2022-07-15T11:51:55;98800.31;;;41.62;nan
22964;BME280;11648;49.306;6.934;2022-07-15T11:54:23;98792.31;;;42.73;nan
22964;BME280;11648;49.306;6.934;2022-07-15T11:56:57;98801.44;;;42.94;nan
22964;BME280;11648;49.306;6.934;2022-07-15T11:59:25;98788.53;;;43.58;nan
22964;BME280;11648;49.306;6.934;2022-07-15T12:02:01;98785.13;;;43.56;nan
22964;BME280;11648;49.306;6.934;2022-07-15T12:04:29;98785.66;;;42.48;nan
22964;BME280;11648;49.306;6.934;2022-07-15T12:06:57;98791.50;;;41.11;nan
22964;BME280;11648;49.306;6.934;2022-07-15T12:09:26;98787.03;;;40.88;nan
22964;BME280;11648;49.306;6.934;2022-07-15T12:12:04;98790.81;;;39.45;nan
22964;BME280;11648;49.306;6.934;2022-07-15T12:14:31;98792.97;;;38.31;nan
22964;BME280;11648;49.306;6.934;2022-07-15T12:16:58;98789.38;;;37.77;nan
22964;BME280;11648;49.306;6.934;2022-07-15T12:19:28;98787.66;;;38.52;nan
22964;BME280;11648;49.306;6.934;2022-07-15T12:21:57;98781.97;;;39.06;nan
22964;BME280;11648;49.306;6.934;2022-07-15T12:24:39;98781.63;;;38.72;nan
22964;BME280;11648;49.306;6.934;2022-07-15T12:27:07;98773.72;;;38.31;nan
22964;BME280;11648;49.306;6.934;2022-07-15T12:29:34;98776.47;;;38.08;nan
22964;BME280;11648;49.306;6.934;2022-07-15T12:32:24;98774.34;;;38.19;nan
22964;BME280;11648;49.306;6.934;2022-07-15T12:34:57;98779.06;;;37.79;nan
22964;BME280;11648;49.306;6.934;2022-07-15T12:39:57;98769.78;;;37.49;nan
22964;BME280;11648;49.306;6.934;2022-07-15T12:42:47;98774.97;;;36.49;nan
22964;BME280;11648;49.306;6.934;2022-07-15T12:50:29;98774.31;;;35.56;nan
22964;BME280;11648;49.306;6.934;2022-07-15T12:52:57;98770.63;;;35.32;nan
22964;BME280;11648;49.306;6.934;2022-07-15T12:55:26;98771.91;;;35.45;nan
22964;BME280;11648;49.306;6.934;2022-07-15T12:58:07;98779.81;;;35.56;nan
22964;BME280;11648;49.306;6.934;2022-07-15T13:00:34;98777.53;;;35.44;nan
22964;BME280;11648;49.306;6.934;2022-07-15T13:03:08;98772.91;;;35.10;nan
22964;BME280;11648;49.306;6.934;2022-07-15T13:05:36;98760.09;;;34.85;nan
22964;BME280;11648;49.306;6.934;2022-07-15T13:08:09;98774.13;;;34.82;nan
22964;BME280;11648;49.306;6.934;2022-07-15T13:10:38;98780.25;;;35.10;nan
22964;BME280;11648;49.306;6.934;2022-07-15T13:13:08;98772.16;;;35.00;nan
22964;BME280;11648;49.306;6.934;2022-07-15T13:15:35;98774.16;;;35.16;nan
22964;BME280;11648;49.306;6.934;2022-07-15T13:18:03;98763.63;;;35.03;nan
22964;BME280;11648;49.306;6.934;2022-07-15T13:20:31;98767.63;;;34.83;nan
22964;BME280;11648;49.306;6.934;2022-07-15T13:22:58;98759.69;;;34.98;nan
22964;BME280;11648;49.306;6.934;2022-07-15T13:25:25;98763.03;;;34.84;nan
22964;BME280;11648;49.306;6.934;2022-07-15T13:27:53;98753.91;;;34.75;nan
22964;BME280;11648;49.306;6.934;2022-07-15T13:30:19;98755.63;;;34.33;nan
22964;BME280;11648;49.306;6.934;2022-07-15T13:32:46;98762.28;;;34.30;nan
22964;BME280;11648;49.306;6.934;2022-07-15T13:35:14;98756.03;;;34.20;nan
22964;BME280;11648;49.306;6.934;2022-07-15T13:37:41;98758.44;;;33.88;nan
22964;BME280;11648;49.306;6.934;2022-07-15T13:40:11;98754.88;;;33.87;nan
22964;BME280;11648;49.306;6.934;2022-07-15T13:42:39;98753.53;;;33.73;nan
22964;BME280;11648;49.306;6.934;2022-07-15T13:45:08;98751.69;;;33.47;nan
22964;BME280;11648;49.306;6.934;2022-07-15T13:47:35;98748.50;;;33.24;nan
22964;BME280;11648;49.306;6.934;2022-07-15T13:50:02;98754.41;;;33.19;nan
22964;BME280;11648;49.306;6.934;2022-07-15T13:52:49;98740.41;;;33.32;nan
22964;BME280;11648;49.306;6.934;2022-07-15T13:55:18;98740.53;;;33.40;nan
22964;BME280;11648;49.306;6.934;2022-07-15T13:57:45;98750.13;;;33.44;nan
22964;BME280;11648;49.306;6.934;2022-07-15T14:00:16;98738.69;;;33.58;nan
22964;BME280;11648;49.306;6.934;2022-07-15T14:02:44;98743.94;;;33.42;nan
22964;BME280;11648;49.306;6.934;2022-07-15T14:05:12;98742.88;;;33.53;nan
22964;BME280;11648;49.306;6.934;2022-07-15T14:07:39;98743.41;;;33.66;nan
22964;BME280;11648;49.306;6.934;2022-07-15T14:10:06;98760.25;;;33.79;nan
22964;BME280;11648;49.306;6.934;2022-07-15T14:12:33;98751.19;;;33.96;nan
22964;BME280;11648;49.306;6.934;2022-07-15T14:15:00;98751.41;;;33.67;nan
22964;BME280;11648;49.306;6.934;2022-07-15T14:17:27;98748.69;;;33.85;nan
22964;BME280;11648;49.306;6.934;2022-07-15T14:19:55;98746.13;;;33.66;nan
22964;BME280;11648;49.306;6.934;2022-07-15T14:22:23;98745.13;;;33.40;nan
22964;BME280;11648;49.306;6.934;2022-07-15T14:24:52;98740.28;;;33.34;nan
22964;BME280;11648;49.306;6.934;2022-07-15T14:27:19;98739.63;;;33.22;nan
22964;BME280;11648;49.306;6.934;2022-07-15T14:29:47;98738.75;;;32.85;nan
22964;BME280;11648;49.306;6.934;2022-07-15T14:32:13;98737.09;;;32.74;nan